createdAt,value
2023-05-05T00:03:17.745Z,11.15
2023-05-05T00:13:43.928Z,11.00
2023-05-05T00:24:10.279Z,10.95
2023-05-05T00:34:35.485Z,10.87
2023-05-05T00:45:02.104Z,10.88
2023-05-05T00:55:29.212Z,10.85
2023-05-05T01:06:10.587Z,10.79
2023-05-05T01:16:39.282Z,10.69
2023-05-05T01:27:26.214Z,10.55
2023-05-05T01:37:56.451Z,10.38
2023-05-05T01:48:24.686Z,10.32
2023-05-05T01:58:51.878Z,10.22
2023-05-05T02:09:18.614Z,10.00
2023-05-05T02:19:48.136Z,9.85
2023-05-05T02:30:19.329Z,9.75
2023-05-05T02:51:32.665Z,9.54
2023-05-05T03:02:10.668Z,9.62
2023-05-05T03:12:46.661Z,9.57
2023-05-05T03:23:13.418Z,9.56
2023-05-05T03:33:39.171Z,9.57
2023-05-05T03:44:05.589Z,9.40
2023-05-05T03:54:31.503Z,9.40
2023-05-05T04:04:57.357Z,9.47
2023-05-05T04:15:23.571Z,9.47
2023-05-05T04:25:49.544Z,9.48
2023-05-05T04:36:15.578Z,9.54
2023-05-05T04:46:41.549Z,9.61
2023-05-05T04:57:09.959Z,9.78
2023-05-05T05:07:35.757Z,10.04
2023-05-05T05:18:01.915Z,10.43
2023-05-05T05:28:27.993Z,11.05
2023-05-05T05:38:54.149Z,11.69
2023-05-05T05:49:19.875Z,12.54
2023-05-05T05:59:45.877Z,13.64
2023-05-05T06:10:26.763Z,14.74
2023-05-05T06:20:54.579Z,15.66
2023-05-05T06:31:20.911Z,16.11
2023-05-05T06:41:46.695Z,16.60
2023-05-05T06:52:12.780Z,17.23
2023-05-05T07:02:39.058Z,17.61
2023-05-05T07:13:05.202Z,17.97
2023-05-05T07:23:30.744Z,18.14
2023-05-05T07:33:56.831Z,18.09
2023-05-05T07:44:22.750Z,18.03
2023-05-05T07:54:48.974Z,18.14
2023-05-05T08:05:15.064Z,18.21
2023-05-05T08:15:40.649Z,18.28
2023-05-05T08:26:09.288Z,18.24
2023-05-05T08:36:35.168Z,18.26
2023-05-05T08:47:02.498Z,18.49
2023-05-05T08:57:33.810Z,18.63
2023-05-05T09:08:02.083Z,18.58
2023-05-05T09:18:27.738Z,18.67
2023-05-05T09:28:56.593Z,18.77
2023-05-05T09:39:22.755Z,18.57
2023-05-05T09:49:57.910Z,18.47
2023-05-05T10:47:53.191Z,19.16
2023-05-05T11:09:31.575Z,19.27
2023-05-05T11:19:57.444Z,19.38
2023-05-05T11:30:23.097Z,19.46
2023-05-05T11:40:50.840Z,19.54
2023-05-05T11:51:17.629Z,19.63
2023-05-05T12:01:44.037Z,19.69
2023-05-05T12:12:10.212Z,19.71
2023-05-05T12:22:35.664Z,19.78
2023-05-05T12:33:05.675Z,19.72
2023-05-05T12:43:33.299Z,19.68
2023-05-05T12:54:07.737Z,19.80
2023-05-05T13:04:34.705Z,19.79
2023-05-05T13:15:00.601Z,19.77
2023-05-05T13:25:26.946Z,19.82
2023-05-05T13:35:52.362Z,19.88
2023-05-05T13:46:20.064Z,19.92
2023-05-05T13:56:46.464Z,19.96
2023-05-05T14:07:12.309Z,19.87
2023-05-05T14:17:37.692Z,19.85
2023-05-05T14:28:03.729Z,19.82
2023-05-05T14:38:29.825Z,19.82
2023-05-05T14:48:55.820Z,19.84
2023-05-05T14:59:21.696Z,19.82
2023-05-05T15:09:47.428Z,19.83
2023-05-05T15:20:15.125Z,19.85
2023-05-05T15:30:40.883Z,19.82
2023-05-05T15:41:09.355Z,19.78
2023-05-05T15:51:35.429Z,19.70
2023-05-05T16:02:01.100Z,19.62
2023-05-05T16:12:27.068Z,19.57
2023-05-05T16:22:53.351Z,19.44
2023-05-05T16:33:18.822Z,19.31
2023-05-05T16:43:44.789Z,19.25
2023-05-05T16:54:10.493Z,19.25
2023-05-05T17:04:36.412Z,19.11
2023-05-05T17:15:02.635Z,18.93
2023-05-05T17:25:28.800Z,18.76
2023-05-05T17:35:55.702Z,18.60
2023-05-05T17:46:21.906Z,18.50
2023-05-05T17:56:47.770Z,18.32
2023-05-05T18:07:14.747Z,18.16
2023-05-05T18:17:40.598Z,18.06
2023-05-05T18:28:06.751Z,17.95
2023-05-05T18:38:33.558Z,17.91
2023-05-05T18:48:59.073Z,17.85
2023-05-05T18:59:25.170Z,17.73
2023-05-05T19:09:50.624Z,17.55
2023-05-05T19:20:16.359Z,17.49
2023-05-05T19:30:42.133Z,17.47
2023-05-05T19:41:07.863Z,17.41
2023-05-05T19:51:33.837Z,17.30
2023-05-05T20:02:00.018Z,17.02
2023-05-05T20:12:25.995Z,16.76
2023-05-05T20:22:52.957Z,16.67
2023-05-05T20:33:17.378Z,16.48
2023-05-05T20:43:43.258Z,16.15
2023-05-05T20:54:10.245Z,16.07
2023-05-05T21:04:35.481Z,15.88
2023-05-05T21:15:01.388Z,15.79
2023-05-05T21:25:28.425Z,15.69
2023-05-05T21:35:54.015Z,15.50
2023-05-05T21:46:20.722Z,15.21
2023-05-05T21:56:46.719Z,15.09
2023-05-05T22:07:12.681Z,15.05
2023-05-05T22:17:38.637Z,14.74
2023-05-05T22:28:05.895Z,14.40
2023-05-05T22:38:31.958Z,14.22
2023-05-05T22:48:57.844Z,14.22
2023-05-05T22:59:23.741Z,14.27
2023-05-05T23:09:50.330Z,14.27
2023-05-05T23:20:16.471Z,14.20
2023-05-05T23:30:42.225Z,14.06
2023-05-05T23:41:08.552Z,13.98
2023-05-05T23:51:34.608Z,13.85
